createdAt,value
2022-08-03T00:02:19.755Z,68.42
2022-08-03T00:04:47.850Z,68.46
2022-08-03T00:07:16.806Z,68.90
2022-08-03T00:09:44.956Z,68.78
2022-08-03T00:12:13.482Z,69.09
2022-08-03T00:14:42.044Z,69.99
2022-08-03T00:17:10.127Z,70.20
2022-08-03T00:19:38.144Z,70.80
2022-08-03T00:22:06.236Z,70.81
2022-08-03T00:24:36.288Z,70.72
2022-08-03T00:27:04.419Z,70.69
2022-08-03T00:29:32.339Z,70.77
2022-08-03T00:32:00.752Z,71.41
2022-08-03T00:34:57.363Z,71.34
2022-08-03T00:37:17.148Z,71.09
2022-08-03T00:39:47.327Z,71.28
2022-08-03T00:42:15.732Z,71.15
2022-08-03T00:44:45.316Z,71.00
2022-08-03T00:47:13.536Z,71.39
2022-08-03T00:49:42.469Z,72.04
2022-08-03T00:52:13.788Z,72.57
2022-08-03T00:54:41.903Z,72.51
2022-08-03T00:57:11.276Z,72.50
2022-08-03T00:59:39.809Z,72.49
2022-08-03T01:02:08.398Z,72.81
2022-08-03T01:04:36.451Z,72.72
2022-08-03T01:07:20.658Z,73.17
2022-08-03T01:10:15.680Z,73.76
2022-08-03T01:12:58.054Z,74.05
2022-08-03T01:15:39.318Z,74.47
2022-08-03T01:18:46.431Z,74.70
2022-08-03T01:21:26.716Z,74.60
2022-08-03T01:24:07.219Z,74.30
2022-08-03T01:26:42.843Z,74.44
2022-08-03T01:29:38.763Z,74.72
2022-08-03T01:32:53.594Z,74.65
2022-08-03T01:35:06.678Z,74.89
2022-08-03T01:37:48.131Z,75.37
2022-08-03T01:40:17.895Z,75.03
2022-08-03T01:42:48.026Z,75.40
2022-08-03T01:45:18.847Z,75.94
2022-08-03T01:47:48.770Z,75.99
2022-08-03T01:50:23.104Z,76.28
2022-08-03T01:52:53.249Z,76.01
2022-08-03T01:55:23.923Z,76.16
2022-08-03T01:58:05.351Z,75.57
2022-08-03T02:00:39.782Z,75.51
2022-08-03T02:03:09.997Z,75.75
2022-08-03T02:05:40.247Z,76.81
2022-08-03T02:08:11.299Z,76.51
2022-08-03T02:10:41.876Z,77.23
2022-08-03T02:13:10.820Z,77.62
2022-08-03T02:15:39.668Z,77.16
2022-08-03T02:18:09.827Z,77.25
2022-08-03T02:20:40.243Z,77.60
2022-08-03T02:23:08.775Z,77.69
2022-08-03T02:25:46.221Z,77.43
2022-08-03T02:28:20.869Z,77.13
2022-08-03T02:30:55.095Z,78.01
2022-08-03T02:33:30.319Z,78.34
2022-08-03T02:36:01.357Z,78.32
2022-08-03T02:38:34.539Z,77.68
2022-08-03T02:41:07.558Z,77.82
2022-08-03T02:43:39.200Z,78.17
2022-08-03T02:46:33.940Z,77.65
2022-08-03T02:49:40.929Z,77.53
2022-08-03T02:51:54.957Z,77.54
2022-08-03T02:54:25.275Z,77.83
2022-08-03T02:56:57.144Z,77.42
2022-08-03T02:59:26.577Z,77.25
2022-08-03T03:01:55.804Z,77.59
2022-08-03T03:04:24.200Z,77.71
2022-08-03T03:07:01.771Z,77.69
2022-08-03T03:09:40.080Z,77.71
2022-08-03T03:12:12.948Z,77.66
2022-08-03T03:14:41.313Z,77.46
2022-08-03T03:17:15.169Z,77.33
2022-08-03T03:19:45.644Z,77.28
2022-08-03T03:22:15.621Z,77.34
2022-08-03T03:24:46.397Z,77.30
2022-08-03T03:27:16.502Z,77.51
2022-08-03T03:29:45.328Z,77.21
2022-08-03T03:32:14.073Z,76.92
2022-08-03T03:34:42.775Z,77.14
2022-08-03T03:37:12.600Z,77.39
2022-08-03T03:39:40.635Z,77.75
2022-08-03T03:42:08.919Z,77.60
2022-08-03T03:44:37.258Z,77.30
2022-08-03T03:47:05.500Z,77.25
2022-08-03T03:49:33.886Z,77.24
2022-08-03T03:52:02.162Z,77.40
2022-08-03T03:54:41.428Z,77.42
2022-08-03T03:57:13.101Z,77.10
2022-08-03T03:59:42.790Z,76.71
2022-08-03T04:02:12.401Z,76.71
2022-08-03T04:04:58.920Z,76.64
2022-08-03T04:07:55.759Z,76.62
2022-08-03T04:10:47.571Z,76.61
2022-08-03T04:13:17.787Z,76.45
2022-08-03T04:15:48.028Z,76.27
2022-08-03T04:18:17.297Z,76.26
2022-08-03T04:20:49.071Z,76.20
2022-08-03T04:23:21.274Z,75.96
2022-08-03T04:25:51.787Z,75.71
2022-08-03T04:28:30.543Z,75.90
2022-08-03T04:31:02.824Z,75.80
2022-08-03T04:33:34.945Z,75.50
2022-08-03T04:36:09.094Z,75.30
2022-08-03T04:38:40.941Z,74.50
2022-08-03T04:41:10.115Z,73.56
2022-08-03T04:43:40.927Z,72.70
2022-08-03T04:46:10.700Z,71.74
2022-08-03T04:48:43.464Z,70.95
2022-08-03T04:51:13.428Z,70.54
2022-08-03T04:53:42.898Z,70.18
2022-08-03T04:56:10.933Z,70.08
2022-08-03T04:58:39.581Z,69.46
2022-08-03T05:01:07.801Z,69.39
2022-08-03T05:03:37.216Z,69.67
2022-08-03T05:06:11.043Z,69.81
2022-08-03T05:08:46.847Z,69.53
2022-08-03T05:11:17.578Z,69.28
2022-08-03T05:13:46.705Z,68.90
2022-08-03T05:16:15.356Z,68.62
2022-08-03T05:18:43.966Z,68.04
2022-08-03T05:21:17.007Z,67.72
2022-08-03T05:23:45.039Z,66.93
2022-08-03T05:26:13.217Z,66.24
2022-08-03T05:28:51.053Z,65.82
2022-08-03T05:31:19.729Z,65.62
2022-08-03T05:33:49.174Z,65.23
2022-08-03T05:36:17.257Z,64.60
2022-08-03T05:38:45.467Z,64.73
2022-08-03T05:41:20.939Z,64.28
2022-08-03T05:43:55.619Z,63.85
2022-08-03T05:46:24.017Z,62.71
2022-08-03T05:48:52.359Z,62.49
2022-08-03T05:51:20.720Z,62.62
2022-08-03T05:53:48.890Z,61.57
2022-08-03T05:56:17.165Z,60.23
2022-08-03T05:58:47.500Z,58.66
2022-08-03T06:01:17.308Z,57.89
2022-08-03T06:03:46.539Z,57.52
2022-08-03T06:06:15.148Z,56.75
2022-08-03T06:08:45.613Z,56.48
2022-08-03T06:11:14.026Z,55.16
2022-08-03T06:13:42.434Z,54.82
2022-08-03T06:16:11.049Z,53.95
2022-08-03T06:18:40.655Z,53.67
2022-08-03T06:21:15.646Z,52.96
2022-08-03T06:23:52.835Z,52.92
2022-08-03T06:26:28.054Z,52.82
2022-08-03T06:28:56.829Z,51.46
2022-08-03T06:31:32.479Z,50.89
2022-08-03T06:34:32.275Z,50.07
2022-08-03T06:36:53.013Z,49.47
2022-08-03T06:39:23.433Z,48.71
2022-08-03T06:41:53.644Z,46.86
2022-08-03T06:44:21.716Z,46.08
2022-08-03T06:46:49.873Z,45.74
2022-08-03T06:49:17.951Z,45.83
2022-08-03T06:52:37.069Z,45.40
2022-08-03T06:54:34.354Z,45.05
2022-08-03T06:57:02.417Z,43.43
2022-08-03T07:00:08.445Z,41.50
2022-08-03T07:02:21.795Z,39.89
2022-08-03T07:04:50.301Z,37.47
2022-08-03T07:07:19.524Z,36.93
2022-08-03T07:09:55.718Z,37.21
2022-08-03T07:12:28.498Z,36.07
2022-08-03T07:15:00.868Z,36.17
2022-08-03T07:17:33.838Z,35.62
2022-08-03T07:20:05.724Z,35.17
2022-08-03T07:22:34.390Z,34.84
2022-08-03T07:25:03.392Z,34.68
2022-08-03T07:27:31.472Z,34.17
2022-08-03T07:29:59.669Z,33.76
2022-08-03T07:32:31.708Z,32.36
2022-08-03T07:35:01.137Z,31.35
2022-08-03T07:37:30.678Z,30.91
2022-08-03T07:40:02.467Z,31.34
2022-08-03T07:42:31.469Z,31.39
2022-08-03T07:45:00.352Z,31.36
2022-08-03T07:47:35.084Z,30.43
2022-08-03T07:50:06.571Z,29.40
2022-08-03T07:52:53.217Z,29.75
2022-08-03T07:55:24.168Z,29.77
2022-08-03T07:58:06.268Z,29.60
2022-08-03T08:00:34.472Z,29.45
2022-08-03T08:03:03.115Z,29.16
2022-08-03T08:05:31.999Z,29.53
2022-08-03T08:08:01.455Z,29.93
2022-08-03T08:10:29.986Z,30.20
2022-08-03T08:12:58.036Z,30.16
2022-08-03T08:15:26.263Z,30.43
2022-08-03T08:17:57.272Z,30.70
2022-08-03T08:20:34.272Z,30.74
2022-08-03T08:23:09.534Z,29.65
2022-08-03T08:25:50.192Z,29.78
2022-08-03T08:28:22.276Z,29.65
2022-08-03T08:31:10.038Z,28.66
2022-08-03T08:34:02.543Z,28.20
2022-08-03T08:36:26.219Z,28.37
2022-08-03T08:38:54.217Z,27.96
2022-08-03T08:41:22.235Z,27.48
2022-08-03T08:43:50.439Z,27.45
2022-08-03T08:46:23.747Z,27.29
2022-08-03T08:48:54.598Z,27.02
2022-08-03T08:51:43.854Z,26.96
2022-08-03T08:54:21.043Z,26.70
2022-08-03T08:56:52.484Z,26.38
2022-08-03T08:59:21.903Z,26.23
2022-08-03T09:01:49.853Z,26.20
2022-08-03T09:04:17.943Z,25.84
2022-08-03T09:07:04.404Z,24.86
2022-08-03T09:10:11.709Z,24.08
2022-08-03T09:12:40.847Z,23.29
2022-08-03T09:15:18.080Z,23.23
2022-08-03T09:17:50.669Z,23.11
2022-08-03T09:20:25.275Z,22.24
2022-08-03T09:22:57.761Z,22.30
2022-08-03T09:25:30.190Z,22.21
2022-08-03T09:28:11.166Z,22.24
2022-08-03T09:30:44.258Z,22.14
2022-08-03T09:33:16.427Z,22.07
2022-08-03T09:35:54.545Z,21.67
2022-08-03T09:38:26.345Z,21.53
2022-08-03T09:41:00.060Z,22.19
2022-08-03T09:43:29.432Z,22.11
2022-08-03T09:46:07.432Z,21.74
2022-08-03T09:48:36.949Z,22.05
2022-08-03T09:51:13.846Z,22.13
2022-08-03T09:53:59.167Z,22.28
2022-08-03T09:56:42.140Z,22.22
2022-08-03T09:59:11.989Z,22.04
2022-08-03T10:01:48.158Z,21.97
2022-08-03T10:04:19.657Z,21.94
2022-08-03T10:07:01.693Z,21.66
2022-08-03T10:09:32.289Z,21.20
2022-08-03T10:12:21.353Z,20.63
2022-08-03T10:14:49.675Z,20.72
2022-08-03T10:17:17.839Z,20.28
2022-08-03T10:19:47.455Z,20.63
2022-08-03T10:22:19.150Z,20.77
2022-08-03T10:25:00.334Z,21.35
2022-08-03T10:27:34.411Z,20.84
2022-08-03T10:30:06.460Z,20.82
2022-08-03T10:32:37.760Z,20.66
2022-08-03T10:35:21.047Z,20.68
2022-08-03T10:37:56.666Z,20.85
2022-08-03T10:40:48.181Z,20.57
2022-08-03T10:43:41.051Z,20.64
2022-08-03T10:46:09.069Z,19.72
2022-08-03T10:48:37.533Z,19.32
2022-08-03T10:51:06.973Z,19.12
2022-08-03T10:53:40.521Z,18.90
2022-08-03T10:56:52.765Z,18.77
2022-08-03T10:59:53.069Z,18.20
2022-08-03T11:02:21.079Z,18.15
2022-08-03T11:05:30.565Z,18.53
2022-08-03T11:08:21.494Z,19.53
2022-08-03T11:10:51.750Z,19.61
2022-08-03T11:13:21.549Z,19.59
2022-08-03T11:15:52.092Z,19.73
2022-08-03T11:18:21.011Z,20.27
2022-08-03T11:20:59.846Z,20.91
2022-08-03T11:24:05.493Z,21.09
2022-08-03T11:26:36.711Z,20.97
2022-08-03T11:29:29.097Z,20.51
2022-08-03T11:31:57.198Z,19.52
2022-08-03T11:34:26.822Z,19.14
2022-08-03T11:37:29.919Z,19.09
2022-08-03T11:40:02.381Z,18.91
2022-08-03T11:42:45.333Z,18.86
2022-08-03T11:45:13.715Z,18.23
2022-08-03T11:47:50.460Z,18.20
2022-08-03T11:50:24.084Z,17.91
2022-08-03T11:52:52.403Z,17.86
2022-08-03T11:55:22.283Z,17.74
2022-08-03T11:59:16.400Z,17.97
2022-08-03T12:00:38.517Z,17.93
2022-08-03T12:03:09.366Z,18.23
2022-08-03T12:05:51.151Z,18.51
2022-08-03T12:08:33.419Z,18.46
2022-08-03T12:11:09.653Z,18.49
2022-08-03T12:13:56.623Z,18.25
2022-08-03T12:16:29.199Z,18.59
2022-08-03T12:19:03.605Z,18.81
2022-08-03T12:21:32.818Z,18.81
2022-08-03T12:24:03.732Z,18.60
2022-08-03T12:26:45.469Z,18.19
2022-08-03T12:29:30.019Z,17.78
2022-08-03T12:31:58.177Z,17.70
2022-08-03T12:34:49.427Z,17.76
2022-08-03T12:37:23.693Z,18.12
2022-08-03T12:40:05.197Z,18.75
2022-08-03T12:42:39.535Z,19.00
2022-08-03T12:45:28.646Z,19.32
2022-08-03T12:47:59.991Z,19.64
2022-08-03T12:50:41.788Z,19.95
2022-08-03T12:53:10.781Z,20.03
2022-08-03T12:55:57.416Z,20.30
2022-08-03T12:58:36.254Z,20.33
2022-08-03T13:01:09.595Z,19.52
2022-08-03T13:03:43.209Z,19.59
2022-08-03T13:06:22.908Z,19.47
2022-08-03T13:09:03.762Z,19.84
2022-08-03T13:11:55.645Z,19.60
2022-08-03T13:14:23.629Z,19.99
2022-08-03T13:16:51.993Z,20.32
2022-08-03T13:19:20.052Z,20.05
2022-08-03T13:22:03.615Z,19.63
2022-08-03T13:24:33.458Z,19.24
2022-08-03T13:28:01.936Z,18.92
2022-08-03T13:29:53.062Z,19.27
2022-08-03T13:32:21.704Z,19.71
2022-08-03T13:34:50.041Z,19.69
2022-08-03T13:37:18.265Z,19.66
2022-08-03T13:39:57.457Z,19.64
2022-08-03T13:42:33.626Z,19.55
2022-08-03T13:45:02.980Z,19.22
2022-08-03T13:47:31.503Z,19.07
2022-08-03T13:50:04.215Z,18.96
2022-08-03T13:52:36.152Z,18.92
2022-08-03T13:55:06.008Z,19.02
2022-08-03T13:58:02.560Z,19.56
2022-08-03T14:00:29.650Z,19.20
2022-08-03T14:03:17.377Z,19.47
2022-08-03T14:05:45.437Z,19.07
2022-08-03T14:08:13.586Z,18.27
2022-08-03T14:10:44.062Z,18.24
2022-08-03T14:13:18.059Z,18.21
2022-08-03T14:15:49.946Z,18.61
2022-08-03T14:18:28.924Z,18.83
2022-08-03T14:21:06.617Z,19.22
2022-08-03T14:23:42.150Z,18.80
2022-08-03T14:26:14.561Z,18.56
2022-08-03T14:28:49.528Z,18.48
2022-08-03T14:32:10.158Z,18.66
2022-08-03T14:34:05.844Z,18.48
2022-08-03T14:36:33.920Z,18.32
2022-08-03T14:39:03.757Z,18.02
2022-08-03T14:41:31.753Z,18.07
2022-08-03T14:44:01.579Z,17.94
2022-08-03T14:46:31.894Z,17.81
2022-08-03T14:50:29.095Z,17.87
2022-08-03T14:51:51.354Z,17.94
2022-08-03T14:54:23.039Z,18.14
2022-08-03T14:56:51.556Z,18.17
2022-08-03T14:59:19.657Z,18.20
2022-08-03T15:02:05.331Z,18.54
2022-08-03T15:04:35.877Z,18.91
2022-08-03T15:07:04.286Z,18.91
2022-08-03T15:09:33.170Z,18.95
2022-08-03T15:12:01.366Z,18.59
2022-08-03T15:14:37.858Z,18.40
2022-08-03T15:17:06.846Z,18.38
2022-08-03T15:20:01.243Z,18.17
2022-08-03T15:22:24.988Z,18.52
2022-08-03T15:26:28.841Z,18.52
2022-08-03T15:28:03.399Z,19.03
2022-08-03T15:30:36.115Z,19.60
2022-08-03T15:33:05.994Z,19.89
2022-08-03T15:35:34.135Z,20.09
2022-08-03T15:38:06.070Z,20.30
2022-08-03T15:40:39.795Z,20.32
2022-08-03T15:43:08.381Z,20.58
2022-08-03T15:45:37.513Z,20.65
2022-08-03T15:48:06.373Z,20.62
2022-08-03T15:50:34.628Z,20.49
2022-08-03T15:53:02.942Z,20.16
2022-08-03T15:55:31.590Z,20.28
2022-08-03T15:59:10.513Z,20.05
2022-08-03T16:00:47.657Z,20.24
2022-08-03T16:03:15.682Z,20.48
2022-08-03T16:05:43.680Z,20.73
2022-08-03T16:08:13.808Z,20.78
2022-08-03T16:10:42.579Z,20.88
2022-08-03T16:13:10.631Z,20.91
2022-08-03T16:15:39.277Z,20.79
2022-08-03T16:18:07.683Z,20.54
2022-08-03T16:20:35.804Z,20.57
2022-08-03T16:23:09.188Z,20.44
2022-08-03T16:25:40.523Z,20.45
2022-08-03T16:28:13.755Z,20.60
2022-08-03T16:30:44.341Z,20.73
2022-08-03T16:33:16.954Z,20.67
2022-08-03T16:35:49.782Z,20.82
2022-08-03T16:38:19.440Z,21.18
2022-08-03T16:40:51.956Z,21.37
2022-08-03T16:43:22.589Z,21.52
2022-08-03T16:45:51.277Z,21.73
2022-08-03T16:48:19.409Z,22.06
2022-08-03T16:50:49.152Z,22.41
2022-08-03T16:53:51.632Z,22.69
2022-08-03T16:56:09.907Z,23.22
2022-08-03T16:58:42.524Z,23.57
2022-08-03T17:01:21.457Z,23.98
2022-08-03T17:04:02.478Z,24.35
2022-08-03T17:06:36.535Z,24.67
2022-08-03T17:09:11.800Z,25.03
2022-08-03T17:11:46.578Z,25.22
2022-08-03T17:14:22.905Z,25.46
2022-08-03T17:17:01.453Z,25.80
2022-08-03T17:19:39.661Z,26.01
2022-08-03T17:22:12.785Z,26.45
2022-08-03T17:24:53.745Z,26.77
2022-08-03T17:28:51.234Z,27.02
2022-08-03T17:30:18.861Z,27.46
2022-08-03T17:32:52.674Z,27.84
2022-08-03T17:35:36.689Z,28.10
2022-08-03T17:38:15.825Z,28.17
2022-08-03T17:40:52.204Z,28.58
2022-08-03T17:44:14.442Z,28.84
2022-08-03T17:46:10.819Z,29.07
2022-08-03T17:48:45.153Z,29.23
2022-08-03T17:51:17.243Z,29.55
2022-08-03T17:54:18.152Z,29.92
2022-08-03T17:58:02.818Z,30.20
2022-08-03T18:00:45.679Z,30.55
2022-08-03T18:03:23.184Z,30.71
2022-08-03T18:06:11.057Z,30.94
2022-08-03T18:08:55.209Z,31.51
2022-08-03T18:11:35.782Z,31.98
2022-08-03T18:14:17.386Z,32.17
2022-08-03T18:17:10.547Z,32.49
2022-08-03T18:20:03.212Z,32.68
2022-08-03T18:22:37.061Z,33.05
2022-08-03T18:25:10.732Z,33.49
2022-08-03T18:27:47.633Z,33.89
2022-08-03T18:30:17.681Z,33.97
2022-08-03T18:33:00.669Z,34.56
2022-08-03T18:35:53.907Z,35.02
2022-08-03T18:38:26.058Z,35.25
2022-08-03T18:40:56.245Z,35.32
2022-08-03T18:43:46.574Z,35.88
2022-08-03T18:46:41.006Z,36.66
2022-08-03T18:49:34.201Z,37.05
2022-08-03T18:52:12.295Z,37.14
2022-08-03T18:55:19.912Z,37.46
2022-08-03T18:58:08.036Z,37.63
2022-08-03T19:01:05.249Z,38.22
2022-08-03T19:04:18.219Z,38.40
2022-08-03T19:07:08.821Z,38.80
2022-08-03T19:09:39.848Z,39.25
2022-08-03T19:12:32.562Z,39.60
2022-08-03T19:15:13.489Z,39.96
2022-08-03T19:17:50.072Z,40.27
2022-08-03T19:20:27.471Z,40.53
2022-08-03T19:22:59.028Z,40.49
2022-08-03T19:25:34.886Z,40.36
2022-08-03T19:28:06.036Z,41.02
2022-08-03T19:30:38.528Z,41.69
2022-08-03T19:33:13.323Z,41.74
2022-08-03T19:35:51.447Z,41.64
2022-08-03T19:38:32.231Z,41.85
2022-08-03T19:41:03.695Z,42.35
2022-08-03T19:43:53.876Z,42.38
2022-08-03T19:46:31.032Z,42.90
2022-08-03T19:49:15.469Z,42.80
2022-08-03T19:52:00.654Z,43.27
2022-08-03T19:54:49.354Z,43.54
2022-08-03T19:57:24.666Z,43.94
2022-08-03T19:59:57.282Z,44.41
2022-08-03T20:02:27.986Z,44.34
2022-08-03T20:05:14.909Z,44.72
2022-08-03T20:07:48.540Z,45.10
2022-08-03T20:10:20.971Z,45.13
2022-08-03T20:12:49.921Z,45.58
2022-08-03T20:15:31.326Z,45.56
2022-08-03T20:18:01.974Z,45.65
2022-08-03T20:20:36.583Z,45.54
2022-08-03T20:23:11.509Z,46.08
2022-08-03T20:25:48.609Z,46.45
2022-08-03T20:28:50.241Z,46.65
2022-08-03T20:31:36.453Z,46.88
2022-08-03T20:34:06.598Z,47.12
2022-08-03T20:36:34.865Z,47.48
2022-08-03T20:39:07.534Z,47.66
2022-08-03T20:41:41.049Z,47.63
2022-08-03T20:44:09.175Z,48.05
2022-08-03T20:46:55.013Z,47.99
2022-08-03T20:49:27.288Z,48.56
2022-08-03T20:51:55.341Z,48.71
2022-08-03T20:54:29.118Z,48.66
2022-08-03T20:57:04.439Z,49.03
2022-08-03T20:59:50.352Z,49.38
2022-08-03T21:02:31.214Z,49.44
2022-08-03T21:05:03.767Z,49.57
2022-08-03T21:08:06.456Z,49.82
2022-08-03T21:10:40.648Z,49.95
2022-08-03T21:13:24.045Z,50.00
2022-08-03T21:16:04.732Z,50.26
2022-08-03T21:18:48.962Z,49.97
2022-08-03T21:21:19.531Z,50.14
2022-08-03T21:23:53.314Z,50.61
2022-08-03T21:26:24.957Z,51.03
2022-08-03T21:29:00.148Z,51.07
2022-08-03T21:31:30.498Z,51.32
2022-08-03T21:34:02.334Z,51.26
2022-08-03T21:36:33.219Z,51.92
2022-08-03T21:39:02.391Z,52.00
2022-08-03T21:41:32.165Z,51.83
2022-08-03T21:44:02.080Z,51.93
2022-08-03T21:46:35.414Z,51.96
2022-08-03T21:50:05.893Z,52.35
2022-08-03T21:52:02.988Z,52.66
2022-08-03T21:54:54.306Z,52.92
2022-08-03T21:57:26.534Z,53.11
2022-08-03T22:00:08.893Z,53.35
2022-08-03T22:02:54.481Z,53.43
2022-08-03T22:05:42.402Z,53.64
2022-08-03T22:08:14.917Z,53.69
2022-08-03T22:10:47.504Z,54.64
2022-08-03T22:13:44.120Z,55.23
2022-08-03T22:16:13.663Z,55.59
2022-08-03T22:18:44.356Z,56.00
2022-08-03T22:21:15.972Z,56.06
2022-08-03T22:23:59.525Z,55.53
2022-08-03T22:26:34.919Z,56.06
2022-08-03T22:29:18.629Z,56.07
2022-08-03T22:31:58.341Z,56.05
2022-08-03T22:34:29.851Z,55.92
2022-08-03T22:37:02.320Z,55.53
2022-08-03T22:39:31.281Z,55.82
2022-08-03T22:41:59.848Z,56.38
2022-08-03T22:44:28.609Z,56.53
2022-08-03T22:46:59.744Z,56.21
2022-08-03T22:49:29.501Z,56.87
2022-08-03T22:51:58.565Z,56.46
2022-08-03T22:54:26.728Z,56.71
2022-08-03T22:56:55.315Z,57.06
2022-08-03T22:59:41.437Z,56.90
2022-08-03T23:02:20.767Z,57.93
2022-08-03T23:04:57.646Z,58.23
2022-08-03T23:07:33.025Z,58.47
2022-08-03T23:10:03.847Z,58.50
2022-08-03T23:12:44.139Z,59.11
2022-08-03T23:15:13.587Z,59.38
2022-08-03T23:18:03.453Z,59.44
2022-08-03T23:20:32.175Z,59.70
2022-08-03T23:23:04.954Z,59.90
2022-08-03T23:25:34.463Z,59.52
2022-08-03T23:28:05.487Z,59.89
2022-08-03T23:30:41.522Z,60.03
2022-08-03T23:33:12.969Z,60.74
2022-08-03T23:36:20.178Z,60.89
2022-08-03T23:38:47.157Z,61.37
2022-08-03T23:41:17.618Z,61.27
2022-08-03T23:43:52.421Z,61.12
2022-08-03T23:46:23.752Z,61.28
2022-08-03T23:49:00.444Z,61.04
2022-08-03T23:51:54.370Z,61.39
2022-08-03T23:54:28.806Z,61.46
2022-08-03T23:57:04.857Z,61.50
